sensor_id;sensor_type;location;lat;lon;timestamp;temperature;humidity
12682;DHT22;6405;59.208;18.216;2022-08-01T00:02:21;11.80;99.90
12682;DHT22;6405;59.208;18.216;2022-08-01T00:04:47;11.80;99.90
12682;DHT22;6405;59.208;18.216;2022-08-01T00:07:14;11.80;99.90
12682;DHT22;6405;59.208;18.216;2022-08-01T00:09:40;11.80;99.90
12682;DHT22;6405;59.208;18.216;2022-08-01T00:12:07;11.80;99.90
12682;DHT22;6405;59.208;18.216;2022-08-01T00:14:33;11.80;99.90
12682;DHT22;6405;59.208;18.216;2022-08-01T00:16:59;11.80;99.90
12682;DHT22;6405;59.208;18.216;2022-08-01T00:19:26;11.80;99.90
12682;DHT22;6405;59.208;18.216;2022-08-01T00:21:52;11.70;99.90
12682;DHT22;6405;59.208;18.216;2022-08-01T00:24:19;11.70;99.90
12682;DHT22;6405;59.208;18.216;2022-08-01T00:26:46;11.70;99.90
12682;DHT22;6405;59.208;18.216;2022-08-01T00:29:13;11.60;99.90
12682;DHT22;6405;59.208;18.216;2022-08-01T00:31:40;11.60;99.90
12682;DHT22;6405;59.208;18.216;2022-08-01T00:34:07;11.60;99.90
12682;DHT22;6405;59.208;18.216;2022-08-01T00:36:33;11.60;99.90
12682;DHT22;6405;59.208;18.216;2022-08-01T00:39:00;11.60;99.90
12682;DHT22;6405;59.208;18.216;2022-08-01T00:41:26;11.60;99.90
12682;DHT22;6405;59.208;18.216;2022-08-01T00:43:52;11.60;99.90
12682;DHT22;6405;59.208;18.216;2022-08-01T00:46:20;11.60;99.90
12682;DHT22;6405;59.208;18.216;2022-08-01T00:48:46;11.60;99.90
12682;DHT22;6405;59.208;18.216;2022-08-01T00:51:13;11.50;99.90
12682;DHT22;6405;59.208;18.216;2022-08-01T00:53:40;11.50;99.90
12682;DHT22;6405;59.208;18.216;2022-08-01T00:56:08;11.60;99.90
12682;DHT22;6405;59.208;18.216;2022-08-01T00:58:37;11.50;99.90
12682;DHT22;6405;59.208;18.216;2022-08-01T01:01:03;11.50;99.90
12682;DHT22;6405;59.208;18.216;2022-08-01T01:03:28;11.50;99.90
12682;DHT22;6405;59.208;18.216;2022-08-01T01:08:43;11.40;99.90
12682;DHT22;6405;59.208;18.216;2022-08-01T01:11:21;11.40;99.90
12682;DHT22;6405;59.208;18.216;2022-08-01T01:13:56;11.40;99.90
12682;DHT22;6405;59.208;18.216;2022-08-01T01:16:23;11.40;99.90
12682;DHT22;6405;59.208;18.216;2022-08-01T01:18:55;11.40;99.90
12682;DHT22;6405;59.208;18.216;2022-08-01T01:21:29;11.40;99.90
12682;DHT22;6405;59.208;18.216;2022-08-01T01:24:14;11.40;99.90
12682;DHT22;6405;59.208;18.216;2022-08-01T01:27:02;11.40;99.90
12682;DHT22;6405;59.208;18.216;2022-08-01T01:29:40;11.30;99.90
12682;DHT22;6405;59.208;18.216;2022-08-01T01:32:14;11.50;99.90
12682;DHT22;6405;59.208;18.216;2022-08-01T01:34:44;11.30;99.90
12682;DHT22;6405;59.208;18.216;2022-08-01T01:37:16;11.30;99.90
12682;DHT22;6405;59.208;18.216;2022-08-01T01:39:44;11.30;99.90
12682;DHT22;6405;59.208;18.216;2022-08-01T01:42:13;11.40;99.90
12682;DHT22;6405;59.208;18.216;2022-08-01T01:44:43;11.30;99.90
12682;DHT22;6405;59.208;18.216;2022-08-01T01:47:12;11.30;99.90
12682;DHT22;6405;59.208;18.216;2022-08-01T01:49:40;11.30;99.90
12682;DHT22;6405;59.208;18.216;2022-08-01T01:52:09;11.30;99.90
12682;DHT22;6405;59.208;18.216;2022-08-01T01:54:42;11.30;99.90
12682;DHT22;6405;59.208;18.216;2022-08-01T01:57:10;11.30;99.90
12682;DHT22;6405;59.208;18.216;2022-08-01T01:59:39;11.30;99.90
12682;DHT22;6405;59.208;18.216;2022-08-01T02:02:09;11.20;99.90
12682;DHT22;6405;59.208;18.216;2022-08-01T02:04:40;11.20;99.90
12682;DHT22;6405;59.208;18.216;2022-08-01T02:07:09;11.20;99.90
12682;DHT22;6405;59.208;18.216;2022-08-01T02:09:37;11.30;99.90
12682;DHT22;6405;59.208;18.216;2022-08-01T02:12:10;11.20;99.90
12682;DHT22;6405;59.208;18.216;2022-08-01T02:14:39;11.20;99.90
12682;DHT22;6405;59.208;18.216;2022-08-01T02:17:10;11.20;99.90
12682;DHT22;6405;59.208;18.216;2022-08-01T02:19:39;11.30;99.90
12682;DHT22;6405;59.208;18.216;2022-08-01T02:22:10;11.20;99.90
12682;DHT22;6405;59.208;18.216;2022-08-01T02:24:54;11.30;99.90
12682;DHT22;6405;59.208;18.216;2022-08-01T02:30:28;11.30;99.90
12682;DHT22;6405;59.208;18.216;2022-08-01T02:33:05;11.30;99.90
12682;DHT22;6405;59.208;18.216;2022-08-01T02:35:33;11.30;99.90
12682;DHT22;6405;59.208;18.216;2022-08-01T02:38:01;11.30;99.90
12682;DHT22;6405;59.208;18.216;2022-08-01T02:40:32;11.30;99.90
12682;DHT22;6405;59.208;18.216;2022-08-01T02:43:02;11.30;99.90
12682;DHT22;6405;59.208;18.216;2022-08-01T02:45:30;11.30;99.90
12682;DHT22;6405;59.208;18.216;2022-08-01T02:48:09;11.30;99.90
12682;DHT22;6405;59.208;18.216;2022-08-01T02:50:36;11.40;99.90
12682;DHT22;6405;59.208;18.216;2022-08-01T02:53:05;11.40;99.90
12682;DHT22;6405;59.208;18.216;2022-08-01T02:55:35;11.40;99.90
12682;DHT22;6405;59.208;18.216;2022-08-01T02:58:03;11.40;99.90
12682;DHT22;6405;59.208;18.216;2022-08-01T03:00:30;11.40;99.90
12682;DHT22;6405;59.208;18.216;2022-08-01T03:02:58;11.40;99.90
12682;DHT22;6405;59.208;18.216;2022-08-01T03:05:25;11.40;99.90
12682;DHT22;6405;59.208;18.216;2022-08-01T03:07:52;11.40;99.90
12682;DHT22;6405;59.208;18.216;2022-08-01T03:10:19;11.40;99.90
12682;DHT22;6405;59.208;18.216;2022-08-01T03:12:46;11.50;99.90
12682;DHT22;6405;59.208;18.216;2022-08-01T03:15:16;11.50;99.90
12682;DHT22;6405;59.208;18.216;2022-08-01T03:17:44;11.50;99.90
12682;DHT22;6405;59.208;18.216;2022-08-01T03:20:13;11.50;99.90
12682;DHT22;6405;59.208;18.216;2022-08-01T03:22:40;11.60;99.90
12682;DHT22;6405;59.208;18.216;2022-08-01T03:25:10;11.60;99.90
12682;DHT22;6405;59.208;18.216;2022-08-01T03:27:37;11.60;99.90
12682;DHT22;6405;59.208;18.216;2022-08-01T03:30:04;11.60;99.90
12682;DHT22;6405;59.208;18.216;2022-08-01T03:32:30;11.70;99.90
12682;DHT22;6405;59.208;18.216;2022-08-01T03:34:58;11.70;99.90
12682;DHT22;6405;59.208;18.216;2022-08-01T03:37:34;11.70;99.90
12682;DHT22;6405;59.208;18.216;2022-08-01T03:40:22;11.80;99.90
12682;DHT22;6405;59.208;18.216;2022-08-01T03:42:54;11.90;99.90
12682;DHT22;6405;59.208;18.216;2022-08-01T03:45:27;11.90;99.90
12682;DHT22;6405;59.208;18.216;2022-08-01T03:47:59;12.00;99.90
12682;DHT22;6405;59.208;18.216;2022-08-01T03:50:29;12.00;99.90
12682;DHT22;6405;59.208;18.216;2022-08-01T03:53:02;12.00;99.90
12682;DHT22;6405;59.208;18.216;2022-08-01T03:55:29;12.10;99.90
12682;DHT22;6405;59.208;18.216;2022-08-01T03:57:59;12.30;99.90
12682;DHT22;6405;59.208;18.216;2022-08-01T04:00:27;12.10;99.90
12682;DHT22;6405;59.208;18.216;2022-08-01T04:02:55;12.10;99.90
12682;DHT22;6405;59.208;18.216;2022-08-01T04:05:22;12.20;99.90
12682;DHT22;6405;59.208;18.216;2022-08-01T04:07:50;12.20;99.90
12682;DHT22;6405;59.208;18.216;2022-08-01T04:10:25;12.20;99.90
12682;DHT22;6405;59.208;18.216;2022-08-01T04:12:51;12.30;99.90
12682;DHT22;6405;59.208;18.216;2022-08-01T04:15:18;12.30;99.90
12682;DHT22;6405;59.208;18.216;2022-08-01T04:17:46;12.30;99.90
12682;DHT22;6405;59.208;18.216;2022-08-01T04:20:12;12.30;99.90
12682;DHT22;6405;59.208;18.216;2022-08-01T04:22:41;12.40;99.90
12682;DHT22;6405;59.208;18.216;2022-08-01T04:25:12;12.40;99.90
12682;DHT22;6405;59.208;18.216;2022-08-01T04:27:44;12.50;99.90
12682;DHT22;6405;59.208;18.216;2022-08-01T04:30:13;12.50;99.90
12682;DHT22;6405;59.208;18.216;2022-08-01T04:32:44;12.60;99.90
12682;DHT22;6405;59.208;18.216;2022-08-01T04:35:12;12.60;99.90
12682;DHT22;6405;59.208;18.216;2022-08-01T04:37:44;12.70;99.90
12682;DHT22;6405;59.208;18.216;2022-08-01T04:40:14;12.80;99.90
12682;DHT22;6405;59.208;18.216;2022-08-01T04:42:43;12.90;99.90
12682;DHT22;6405;59.208;18.216;2022-08-01T04:45:10;13.20;99.90
12682;DHT22;6405;59.208;18.216;2022-08-01T04:47:39;13.10;99.90
12682;DHT22;6405;59.208;18.216;2022-08-01T04:50:08;13.30;99.90
12682;DHT22;6405;59.208;18.216;2022-08-01T04:52:37;13.50;99.90
12682;DHT22;6405;59.208;18.216;2022-08-01T04:55:04;13.70;99.90
12682;DHT22;6405;59.208;18.216;2022-08-01T04:57:41;13.90;99.90
12682;DHT22;6405;59.208;18.216;2022-08-01T05:00:09;14.20;99.90
12682;DHT22;6405;59.208;18.216;2022-08-01T05:02:36;14.40;99.90
12682;DHT22;6405;59.208;18.216;2022-08-01T05:05:05;14.80;99.90
12682;DHT22;6405;59.208;18.216;2022-08-01T05:07:36;15.10;99.90
12682;DHT22;6405;59.208;18.216;2022-08-01T05:10:04;15.30;99.90
12682;DHT22;6405;59.208;18.216;2022-08-01T05:12:31;15.60;99.90
12682;DHT22;6405;59.208;18.216;2022-08-01T05:14:59;15.90;99.90
12682;DHT22;6405;59.208;18.216;2022-08-01T05:17:26;16.10;99.90
12682;DHT22;6405;59.208;18.216;2022-08-01T05:19:53;16.30;99.90
12682;DHT22;6405;59.208;18.216;2022-08-01T05:22:21;16.70;99.90
12682;DHT22;6405;59.208;18.216;2022-08-01T05:24:48;16.90;99.90
12682;DHT22;6405;59.208;18.216;2022-08-01T05:27:16;17.00;99.90
12682;DHT22;6405;59.208;18.216;2022-08-01T05:29:44;17.10;99.90
12682;DHT22;6405;59.208;18.216;2022-08-01T05:32:10;17.20;99.90
12682;DHT22;6405;59.208;18.216;2022-08-01T05:34:38;17.30;99.90
12682;DHT22;6405;59.208;18.216;2022-08-01T05:37:04;17.40;99.90
12682;DHT22;6405;59.208;18.216;2022-08-01T05:39:31;17.50;99.90
12682;DHT22;6405;59.208;18.216;2022-08-01T05:41:58;17.60;99.90
12682;DHT22;6405;59.208;18.216;2022-08-01T05:44:26;17.70;99.90
12682;DHT22;6405;59.208;18.216;2022-08-01T05:46:53;17.80;99.90
12682;DHT22;6405;59.208;18.216;2022-08-01T05:49:21;18.00;99.90
12682;DHT22;6405;59.208;18.216;2022-08-01T05:51:47;18.00;99.90
12682;DHT22;6405;59.208;18.216;2022-08-01T05:54:14;18.10;99.90
12682;DHT22;6405;59.208;18.216;2022-08-01T05:56:40;18.10;99.90
12682;DHT22;6405;59.208;18.216;2022-08-01T05:59:07;18.20;99.90
12682;DHT22;6405;59.208;18.216;2022-08-01T06:01:34;18.20;99.90
12682;DHT22;6405;59.208;18.216;2022-08-01T06:04:01;18.30;99.90
12682;DHT22;6405;59.208;18.216;2022-08-01T06:06:28;18.30;99.90
12682;DHT22;6405;59.208;18.216;2022-08-01T06:08:54;18.30;99.90
12682;DHT22;6405;59.208;18.216;2022-08-01T06:11:20;18.30;99.90
12682;DHT22;6405;59.208;18.216;2022-08-01T06:13:47;18.30;99.90
12682;DHT22;6405;59.208;18.216;2022-08-01T06:16:13;18.30;99.90
12682;DHT22;6405;59.208;18.216;2022-08-01T06:18:39;18.40;99.90
12682;DHT22;6405;59.208;18.216;2022-08-01T06:21:05;18.40;99.90
12682;DHT22;6405;59.208;18.216;2022-08-01T06:23:31;18.50;99.90
12682;DHT22;6405;59.208;18.216;2022-08-01T06:25:58;18.60;99.90
12682;DHT22;6405;59.208;18.216;2022-08-01T06:28:25;18.70;99.90
12682;DHT22;6405;59.208;18.216;2022-08-01T06:30:52;18.70;99.90
12682;DHT22;6405;59.208;18.216;2022-08-01T06:33:19;18.80;99.90
12682;DHT22;6405;59.208;18.216;2022-08-01T06:35:46;18.90;99.90
12682;DHT22;6405;59.208;18.216;2022-08-01T06:38:13;18.90;99.90
12682;DHT22;6405;59.208;18.216;2022-08-01T06:40:40;18.90;99.90
12682;DHT22;6405;59.208;18.216;2022-08-01T06:43:06;19.00;99.90
12682;DHT22;6405;59.208;18.216;2022-08-01T06:45:33;19.10;99.90
12682;DHT22;6405;59.208;18.216;2022-08-01T06:48:00;19.20;99.90
12682;DHT22;6405;59.208;18.216;2022-08-01T06:50:27;19.30;99.90
12682;DHT22;6405;59.208;18.216;2022-08-01T06:52:54;19.50;99.90
12682;DHT22;6405;59.208;18.216;2022-08-01T06:55:21;19.50;99.90
12682;DHT22;6405;59.208;18.216;2022-08-01T06:57:49;19.70;99.90
12682;DHT22;6405;59.208;18.216;2022-08-01T07:00:16;19.80;99.90
12682;DHT22;6405;59.208;18.216;2022-08-01T07:02:45;19.80;99.90
12682;DHT22;6405;59.208;18.216;2022-08-01T07:05:12;20.00;99.90
12682;DHT22;6405;59.208;18.216;2022-08-01T07:07:39;20.10;99.90
12682;DHT22;6405;59.208;18.216;2022-08-01T07:10:06;20.20;99.90
12682;DHT22;6405;59.208;18.216;2022-08-01T07:12:35;20.30;99.90
12682;DHT22;6405;59.208;18.216;2022-08-01T07:15:05;20.50;99.90
12682;DHT22;6405;59.208;18.216;2022-08-01T07:17:32;20.50;99.90
12682;DHT22;6405;59.208;18.216;2022-08-01T07:20:01;20.60;99.90
12682;DHT22;6405;59.208;18.216;2022-08-01T07:22:29;20.50;99.90
12682;DHT22;6405;59.208;18.216;2022-08-01T07:24:56;20.40;99.90
12682;DHT22;6405;59.208;18.216;2022-08-01T07:27:23;20.30;99.90
12682;DHT22;6405;59.208;18.216;2022-08-01T07:29:50;20.40;99.90
12682;DHT22;6405;59.208;18.216;2022-08-01T07:32:17;20.50;99.90
12682;DHT22;6405;59.208;18.216;2022-08-01T07:34:44;20.60;99.90
12682;DHT22;6405;59.208;18.216;2022-08-01T07:37:11;20.70;99.90
12682;DHT22;6405;59.208;18.216;2022-08-01T07:39:38;20.90;99.90
12682;DHT22;6405;59.208;18.216;2022-08-01T07:42:05;21.00;99.90
12682;DHT22;6405;59.208;18.216;2022-08-01T07:44:32;20.90;99.90
12682;DHT22;6405;59.208;18.216;2022-08-01T07:47:00;20.80;99.90
12682;DHT22;6405;59.208;18.216;2022-08-01T07:49:26;21.00;99.90
12682;DHT22;6405;59.208;18.216;2022-08-01T07:51:54;20.90;99.90
12682;DHT22;6405;59.208;18.216;2022-08-01T07:54:22;20.80;99.90
12682;DHT22;6405;59.208;18.216;2022-08-01T07:56:50;20.90;99.90
12682;DHT22;6405;59.208;18.216;2022-08-01T07:59:16;21.00;99.90
12682;DHT22;6405;59.208;18.216;2022-08-01T08:01:50;21.00;99.90
12682;DHT22;6405;59.208;18.216;2022-08-01T08:04:16;21.10;99.90
12682;DHT22;6405;59.208;18.216;2022-08-01T08:06:43;21.20;99.90
12682;DHT22;6405;59.208;18.216;2022-08-01T08:09:10;21.30;99.90
12682;DHT22;6405;59.208;18.216;2022-08-01T08:11:37;21.40;99.90
12682;DHT22;6405;59.208;18.216;2022-08-01T08:14:03;21.50;99.90
12682;DHT22;6405;59.208;18.216;2022-08-01T08:16:29;21.50;99.90
12682;DHT22;6405;59.208;18.216;2022-08-01T08:18:55;21.70;99.90
12682;DHT22;6405;59.208;18.216;2022-08-01T08:21:24;21.80;99.90
12682;DHT22;6405;59.208;18.216;2022-08-01T08:23:51;21.90;99.90
12682;DHT22;6405;59.208;18.216;2022-08-01T08:26:37;22.10;99.90
12682;DHT22;6405;59.208;18.216;2022-08-01T08:29:04;22.30;99.90
12682;DHT22;6405;59.208;18.216;2022-08-01T08:31:30;22.40;99.90
12682;DHT22;6405;59.208;18.216;2022-08-01T08:33:57;22.50;99.90
12682;DHT22;6405;59.208;18.216;2022-08-01T08:36:24;22.60;99.90
12682;DHT22;6405;59.208;18.216;2022-08-01T08:38:51;22.40;99.90
12682;DHT22;6405;59.208;18.216;2022-08-01T08:41:18;22.60;99.90
12682;DHT22;6405;59.208;18.216;2022-08-01T08:43:47;22.90;99.90
12682;DHT22;6405;59.208;18.216;2022-08-01T08:46:16;23.10;99.90
12682;DHT22;6405;59.208;18.216;2022-08-01T08:48:43;23.30;99.90
12682;DHT22;6405;59.208;18.216;2022-08-01T08:51:12;23.40;99.90
12682;DHT22;6405;59.208;18.216;2022-08-01T08:53:40;23.60;99.90
12682;DHT22;6405;59.208;18.216;2022-08-01T08:56:13;23.50;99.90
12682;DHT22;6405;59.208;18.216;2022-08-01T08:58:42;23.30;99.90
12682;DHT22;6405;59.208;18.216;2022-08-01T09:01:10;23.10;99.90
12682;DHT22;6405;59.208;18.216;2022-08-01T09:03:39;22.90;99.90
12682;DHT22;6405;59.208;18.216;2022-08-01T09:06:06;22.90;99.90
12682;DHT22;6405;59.208;18.216;2022-08-01T09:08:33;22.90;99.90
12682;DHT22;6405;59.208;18.216;2022-08-01T09:10:59;22.60;99.90
12682;DHT22;6405;59.208;18.216;2022-08-01T09:13:25;22.60;99.90
12682;DHT22;6405;59.208;18.216;2022-08-01T09:15:52;22.60;99.90
12682;DHT22;6405;59.208;18.216;2022-08-01T09:18:28;22.60;99.90
12682;DHT22;6405;59.208;18.216;2022-08-01T09:26:15;23.40;99.90
12682;DHT22;6405;59.208;18.216;2022-08-01T09:28:43;23.50;99.90
12682;DHT22;6405;59.208;18.216;2022-08-01T09:31:14;23.90;99.90
12682;DHT22;6405;59.208;18.216;2022-08-01T09:33:59;23.80;99.90
12682;DHT22;6405;59.208;18.216;2022-08-01T09:36:53;23.70;99.90
12682;DHT22;6405;59.208;18.216;2022-08-01T09:39:26;24.10;99.90
12682;DHT22;6405;59.208;18.216;2022-08-01T09:41:57;24.00;99.90
12682;DHT22;6405;59.208;18.216;2022-08-01T09:44:41;24.10;99.90
12682;DHT22;6405;59.208;18.216;2022-08-01T09:47:10;24.10;99.90
12682;DHT22;6405;59.208;18.216;2022-08-01T09:49:37;24.30;99.90
12682;DHT22;6405;59.208;18.216;2022-08-01T09:52:33;24.30;99.90
12682;DHT22;6405;59.208;18.216;2022-08-01T09:55:04;24.20;99.90
12682;DHT22;6405;59.208;18.216;2022-08-01T09:57:31;24.30;99.90
12682;DHT22;6405;59.208;18.216;2022-08-01T09:59:59;24.30;99.90
12682;DHT22;6405;59.208;18.216;2022-08-01T10:02:34;24.60;99.90
12682;DHT22;6405;59.208;18.216;2022-08-01T10:05:04;24.50;99.90
12682;DHT22;6405;59.208;18.216;2022-08-01T10:07:31;24.30;99.90
12682;DHT22;6405;59.208;18.216;2022-08-01T10:10:10;24.20;99.90
12682;DHT22;6405;59.208;18.216;2022-08-01T10:12:37;24.20;99.90
12682;DHT22;6405;59.208;18.216;2022-08-01T10:15:03;23.90;99.90
12682;DHT22;6405;59.208;18.216;2022-08-01T10:17:31;23.90;99.90
12682;DHT22;6405;59.208;18.216;2022-08-01T10:19:58;23.90;99.90
12682;DHT22;6405;59.208;18.216;2022-08-01T10:22:27;23.90;99.90
12682;DHT22;6405;59.208;18.216;2022-08-01T10:24:55;23.90;99.90
12682;DHT22;6405;59.208;18.216;2022-08-01T10:27:23;23.90;99.90
12682;DHT22;6405;59.208;18.216;2022-08-01T10:29:55;23.90;99.90
12682;DHT22;6405;59.208;18.216;2022-08-01T10:32:21;24.20;99.90
12682;DHT22;6405;59.208;18.216;2022-08-01T10:34:52;24.10;99.90
12682;DHT22;6405;59.208;18.216;2022-08-01T10:37:18;24.20;99.90
12682;DHT22;6405;59.208;18.216;2022-08-01T10:39:45;24.50;99.90
12682;DHT22;6405;59.208;18.216;2022-08-01T10:42:12;24.70;99.90
12682;DHT22;6405;59.208;18.216;2022-08-01T10:44:40;24.80;99.90
12682;DHT22;6405;59.208;18.216;2022-08-01T10:47:12;24.70;99.90
12682;DHT22;6405;59.208;18.216;2022-08-01T10:52:30;24.60;99.90
12682;DHT22;6405;59.208;18.216;2022-08-01T10:55:05;24.50;99.90
12682;DHT22;6405;59.208;18.216;2022-08-01T11:00:10;24.30;99.90
12682;DHT22;6405;59.208;18.216;2022-08-01T11:03:00;24.30;99.90
12682;DHT22;6405;59.208;18.216;2022-08-01T11:05:31;24.00;99.90
12682;DHT22;6405;59.208;18.216;2022-08-01T11:08:03;23.80;99.90
12682;DHT22;6405;59.208;18.216;2022-08-01T11:12:58;24.60;99.90
12682;DHT22;6405;59.208;18.216;2022-08-01T11:15:27;24.80;99.90
12682;DHT22;6405;59.208;18.216;2022-08-01T11:17:55;25.10;99.90
12682;DHT22;6405;59.208;18.216;2022-08-01T11:20:23;25.20;99.90
12682;DHT22;6405;59.208;18.216;2022-08-01T11:30:45;25.40;99.90
12682;DHT22;6405;59.208;18.216;2022-08-01T11:33:12;25.40;99.90
12682;DHT22;6405;59.208;18.216;2022-08-01T11:38:38;25.70;99.90
12682;DHT22;6405;59.208;18.216;2022-08-01T11:41:25;25.50;99.90
12682;DHT22;6405;59.208;18.216;2022-08-01T11:44:05;25.20;99.90
12682;DHT22;6405;59.208;18.216;2022-08-01T11:46:53;25.10;99.90
12682;DHT22;6405;59.208;18.216;2022-08-01T11:49:48;24.90;99.90
12682;DHT22;6405;59.208;18.216;2022-08-01T11:52:29;25.30;99.90
12682;DHT22;6405;59.208;18.216;2022-08-01T11:57:28;25.50;99.90
12682;DHT22;6405;59.208;18.216;2022-08-01T12:00:05;25.40;99.90
12682;DHT22;6405;59.208;18.216;2022-08-01T12:02:35;25.30;99.90
12682;DHT22;6405;59.208;18.216;2022-08-01T12:05:10;25.20;99.90
12682;DHT22;6405;59.208;18.216;2022-08-01T12:07:40;24.70;99.90
12682;DHT22;6405;59.208;18.216;2022-08-01T12:10:13;24.60;99.90
12682;DHT22;6405;59.208;18.216;2022-08-01T12:12:54;24.40;99.90
12682;DHT22;6405;59.208;18.216;2022-08-01T12:15:24;24.10;99.90
12682;DHT22;6405;59.208;18.216;2022-08-01T12:17:56;24.20;99.90
12682;DHT22;6405;59.208;18.216;2022-08-01T12:20:24;24.30;99.90
12682;DHT22;6405;59.208;18.216;2022-08-01T12:22:55;24.20;99.90
12682;DHT22;6405;59.208;18.216;2022-08-01T12:25:22;24.20;99.90
12682;DHT22;6405;59.208;18.216;2022-08-01T12:27:48;24.30;99.90
12682;DHT22;6405;59.208;18.216;2022-08-01T12:30:20;24.10;99.90
12682;DHT22;6405;59.208;18.216;2022-08-01T12:32:53;24.00;99.90
12682;DHT22;6405;59.208;18.216;2022-08-01T12:35:21;24.10;99.90
12682;DHT22;6405;59.208;18.216;2022-08-01T12:38:07;23.90;99.90
12682;DHT22;6405;59.208;18.216;2022-08-01T12:40:35;24.00;99.90
12682;DHT22;6405;59.208;18.216;2022-08-01T12:43:07;23.80;99.90
12682;DHT22;6405;59.208;18.216;2022-08-01T12:45:43;24.10;99.90
12682;DHT22;6405;59.208;18.216;2022-08-01T12:48:15;24.50;99.90
12682;DHT22;6405;59.208;18.216;2022-08-01T12:50:45;24.70;99.90
12682;DHT22;6405;59.208;18.216;2022-08-01T12:53:12;25.00;99.90
12682;DHT22;6405;59.208;18.216;2022-08-01T12:55:53;25.00;99.90
12682;DHT22;6405;59.208;18.216;2022-08-01T12:58:20;25.00;99.90
12682;DHT22;6405;59.208;18.216;2022-08-01T13:00:49;25.10;99.90
12682;DHT22;6405;59.208;18.216;2022-08-01T13:03:20;25.10;99.90
12682;DHT22;6405;59.208;18.216;2022-08-01T13:05:54;25.30;99.90
12682;DHT22;6405;59.208;18.216;2022-08-01T13:08:33;25.40;99.90
12682;DHT22;6405;59.208;18.216;2022-08-01T13:11:02;25.40;99.90
12682;DHT22;6405;59.208;18.216;2022-08-01T13:13:39;25.40;99.90
12682;DHT22;6405;59.208;18.216;2022-08-01T13:16:07;25.30;99.90
12682;DHT22;6405;59.208;18.216;2022-08-01T13:18:35;25.20;99.90
12682;DHT22;6405;59.208;18.216;2022-08-01T13:21:19;25.20;99.90
12682;DHT22;6405;59.208;18.216;2022-08-01T13:24:08;25.30;99.90
12682;DHT22;6405;59.208;18.216;2022-08-01T13:26:54;24.80;99.90
12682;DHT22;6405;59.208;18.216;2022-08-01T13:29:39;24.80;99.90
12682;DHT22;6405;59.208;18.216;2022-08-01T13:32:18;24.80;99.90
12682;DHT22;6405;59.208;18.216;2022-08-01T13:34:44;24.50;99.90
12682;DHT22;6405;59.208;18.216;2022-08-01T13:37:11;24.80;99.90
12682;DHT22;6405;59.208;18.216;2022-08-01T13:39:37;24.50;99.90
12682;DHT22;6405;59.208;18.216;2022-08-01T13:42:08;24.20;99.90
12682;DHT22;6405;59.208;18.216;2022-08-01T13:44:35;24.10;99.90
12682;DHT22;6405;59.208;18.216;2022-08-01T13:47:03;24.20;99.90
12682;DHT22;6405;59.208;18.216;2022-08-01T13:49:31;24.30;99.90
12682;DHT22;6405;59.208;18.216;2022-08-01T13:51:59;24.20;99.90
12682;DHT22;6405;59.208;18.216;2022-08-01T13:54:25;24.30;99.90
12682;DHT22;6405;59.208;18.216;2022-08-01T13:56:53;24.50;99.90
12682;DHT22;6405;59.208;18.216;2022-08-01T13:59:20;24.50;99.90
12682;DHT22;6405;59.208;18.216;2022-08-01T14:01:46;24.70;99.90
12682;DHT22;6405;59.208;18.216;2022-08-01T14:04:13;25.00;99.90
12682;DHT22;6405;59.208;18.216;2022-08-01T14:06:40;25.00;99.90
12682;DHT22;6405;59.208;18.216;2022-08-01T14:09:05;25.10;99.90
12682;DHT22;6405;59.208;18.216;2022-08-01T14:11:32;24.90;99.90
12682;DHT22;6405;59.208;18.216;2022-08-01T14:13:59;25.00;99.90
12682;DHT22;6405;59.208;18.216;2022-08-01T14:16:25;25.30;99.90
12682;DHT22;6405;59.208;18.216;2022-08-01T14:18:52;25.50;99.90
12682;DHT22;6405;59.208;18.216;2022-08-01T14:21:18;25.60;99.90
12682;DHT22;6405;59.208;18.216;2022-08-01T14:23:45;25.50;99.90
12682;DHT22;6405;59.208;18.216;2022-08-01T14:26:12;25.70;99.90
12682;DHT22;6405;59.208;18.216;2022-08-01T14:28:40;25.50;99.90
12682;DHT22;6405;59.208;18.216;2022-08-01T14:31:07;25.60;99.90
12682;DHT22;6405;59.208;18.216;2022-08-01T14:33:34;25.40;99.90
12682;DHT22;6405;59.208;18.216;2022-08-01T14:36:01;25.00;99.90
12682;DHT22;6405;59.208;18.216;2022-08-01T14:38:29;24.60;99.90
12682;DHT22;6405;59.208;18.216;2022-08-01T14:40:55;24.10;99.90
12682;DHT22;6405;59.208;18.216;2022-08-01T14:43:21;23.80;99.90
12682;DHT22;6405;59.208;18.216;2022-08-01T14:45:48;23.50;99.90
12682;DHT22;6405;59.208;18.216;2022-08-01T14:48:17;23.10;99.90
12682;DHT22;6405;59.208;18.216;2022-08-01T14:50:44;23.00;99.90
12682;DHT22;6405;59.208;18.216;2022-08-01T14:53:11;22.90;99.90
12682;DHT22;6405;59.208;18.216;2022-08-01T14:55:38;22.80;99.90
12682;DHT22;6405;59.208;18.216;2022-08-01T14:58:05;22.60;99.90
12682;DHT22;6405;59.208;18.216;2022-08-01T15:00:32;22.60;99.90
12682;DHT22;6405;59.208;18.216;2022-08-01T15:02:58;22.50;99.90
12682;DHT22;6405;59.208;18.216;2022-08-01T15:05:25;22.50;99.90
12682;DHT22;6405;59.208;18.216;2022-08-01T15:07:52;22.50;99.90
12682;DHT22;6405;59.208;18.216;2022-08-01T15:10:19;22.40;99.90
12682;DHT22;6405;59.208;18.216;2022-08-01T15:12:45;22.40;99.90
12682;DHT22;6405;59.208;18.216;2022-08-01T15:15:11;22.50;99.90
12682;DHT22;6405;59.208;18.216;2022-08-01T15:17:37;22.30;99.90
12682;DHT22;6405;59.208;18.216;2022-08-01T15:20:05;22.20;99.90
12682;DHT22;6405;59.208;18.216;2022-08-01T15:22:33;22.10;99.90
12682;DHT22;6405;59.208;18.216;2022-08-01T15:25:00;22.20;99.90
12682;DHT22;6405;59.208;18.216;2022-08-01T15:27:28;22.20;99.90
12682;DHT22;6405;59.208;18.216;2022-08-01T15:29:54;22.30;99.90
12682;DHT22;6405;59.208;18.216;2022-08-01T15:32:21;22.30;99.90
12682;DHT22;6405;59.208;18.216;2022-08-01T15:34:48;22.50;99.90
12682;DHT22;6405;59.208;18.216;2022-08-01T15:37:16;22.90;99.90
12682;DHT22;6405;59.208;18.216;2022-08-01T15:39:44;22.90;99.90
12682;DHT22;6405;59.208;18.216;2022-08-01T15:42:13;22.80;99.90
12682;DHT22;6405;59.208;18.216;2022-08-01T15:44:40;22.70;99.90
12682;DHT22;6405;59.208;18.216;2022-08-01T15:47:07;22.70;99.90
12682;DHT22;6405;59.208;18.216;2022-08-01T15:49:33;22.60;99.90
12682;DHT22;6405;59.208;18.216;2022-08-01T15:52:06;22.30;99.90
12682;DHT22;6405;59.208;18.216;2022-08-01T15:54:34;22.30;99.90
12682;DHT22;6405;59.208;18.216;2022-08-01T15:57:01;22.30;99.90
12682;DHT22;6405;59.208;18.216;2022-08-01T15:59:28;22.30;99.90
12682;DHT22;6405;59.208;18.216;2022-08-01T16:01:54;22.30;99.90
12682;DHT22;6405;59.208;18.216;2022-08-01T16:04:20;22.30;99.90
12682;DHT22;6405;59.208;18.216;2022-08-01T16:06:46;22.50;99.90
12682;DHT22;6405;59.208;18.216;2022-08-01T16:09:13;22.30;99.90
12682;DHT22;6405;59.208;18.216;2022-08-01T16:11:39;22.30;99.90
12682;DHT22;6405;59.208;18.216;2022-08-01T16:14:05;22.20;99.90
12682;DHT22;6405;59.208;18.216;2022-08-01T16:16:31;22.00;99.90